createdAt,value
2022-08-23T00:00:12.862Z,97079.44
2022-08-23T00:02:43.301Z,97096.31
2022-08-23T00:05:11.939Z,97093.56
2022-08-23T00:07:41.874Z,97100.03
2022-08-23T00:10:14.176Z,97072.56
2022-08-23T00:12:43.108Z,97102.53
2022-08-23T00:15:15.174Z,97056.53
2022-08-23T00:17:43.977Z,97076.50
2022-08-23T00:20:16.043Z,97096.13
2022-08-23T00:22:44.638Z,97111.41
2022-08-23T00:25:15.474Z,97076.63
2022-08-23T00:27:44.198Z,97101.91
2022-08-23T00:30:14.651Z,97105.94
2022-08-23T00:32:43.921Z,97101.78
2022-08-23T00:35:26.267Z,97119.41
2022-08-23T00:38:33.275Z,97107.09
2022-08-23T00:40:49.068Z,97120.19
2022-08-23T00:43:36.928Z,97123.56
2022-08-23T00:46:31.624Z,96772.56
2022-08-23T00:49:02.165Z,97112.72
2022-08-23T00:51:52.850Z,97110.84
2022-08-23T00:54:24.678Z,97125.91
2022-08-23T00:56:56.092Z,97115.50
2022-08-23T00:59:24.704Z,97124.41
2022-08-23T01:01:53.469Z,97114.97
2022-08-23T01:04:22.215Z,97120.50
2022-08-23T01:06:58.490Z,97030.66
2022-08-23T01:09:27.203Z,97104.75
2022-08-23T01:12:04.732Z,97126.66
2022-08-23T01:14:37.225Z,97123.69
2022-08-23T01:17:11.600Z,97126.97
2022-08-23T01:19:42.756Z,97124.53
2022-08-23T01:22:18.362Z,97135.16
2022-08-23T01:25:05.960Z,97141.50
2022-08-23T01:27:36.884Z,97145.88
2022-08-23T01:30:06.947Z,97134.00
2022-08-23T01:32:42.256Z,97056.97
2022-08-23T01:35:11.490Z,97144.28
2022-08-23T01:37:39.861Z,97142.28
2022-08-23T01:40:10.627Z,97141.22
2022-08-23T01:42:41.802Z,97140.94
2022-08-23T01:45:12.103Z,97143.03
2022-08-23T01:47:41.059Z,97131.72
2022-08-23T01:50:12.992Z,97137.66
2022-08-23T01:52:46.986Z,97146.53
2022-08-23T01:55:17.556Z,97142.38
2022-08-23T01:57:48.475Z,97143.53
2022-08-23T02:00:18.069Z,97107.53
2022-08-23T02:02:47.260Z,97099.69
2022-08-23T02:05:18.872Z,97130.13
2022-08-23T02:07:47.630Z,97126.00
2022-08-23T02:10:17.758Z,97139.81
2022-08-23T02:12:46.829Z,97143.97
2022-08-23T02:15:15.919Z,97138.84
2022-08-23T02:17:46.465Z,97144.53
2022-08-23T02:20:15.108Z,97147.00
2022-08-23T02:22:43.758Z,97147.00
2022-08-23T02:25:11.957Z,97159.34
2022-08-23T02:27:43.952Z,97138.13
2022-08-23T02:30:13.654Z,97166.72
2022-08-23T02:32:42.438Z,97159.16
2022-08-23T02:35:10.920Z,97172.19
2022-08-23T02:37:39.415Z,97179.59
2022-08-23T02:40:09.661Z,97167.84
2022-08-23T02:42:37.933Z,97159.91
2022-08-23T02:45:09.694Z,97186.75
2022-08-23T02:47:39.044Z,97185.06
2022-08-23T02:50:08.309Z,97119.81
2022-08-23T02:52:36.686Z,97187.13
2022-08-23T02:55:05.516Z,97174.56
2022-08-23T02:57:33.802Z,97192.25
2022-08-23T03:00:01.985Z,97191.41
2022-08-23T03:02:32.901Z,97198.50
2022-08-23T03:05:01.554Z,97194.53
2022-08-23T03:07:31.240Z,97202.94
2022-08-23T03:09:59.705Z,97123.78
2022-08-23T03:12:28.427Z,97202.09
2022-08-23T03:14:56.689Z,97186.75
2022-08-23T03:17:25.374Z,97201.44
2022-08-23T03:19:54.725Z,97194.06
2022-08-23T03:22:23.536Z,97201.25
2022-08-23T03:24:51.782Z,97189.50
2022-08-23T03:27:23.774Z,97185.91
2022-08-23T03:29:52.026Z,97203.78
2022-08-23T03:32:20.036Z,97205.78
2022-08-23T03:34:48.674Z,97203.97
2022-08-23T03:37:18.349Z,97206.72
2022-08-23T03:39:46.595Z,97201.88
2022-08-23T03:42:14.848Z,97214.34
2022-08-23T03:44:43.245Z,97217.47
2022-08-23T03:47:11.487Z,97213.88
2022-08-23T03:49:40.176Z,97216.53
2022-08-23T03:52:09.252Z,97221.34
2022-08-23T03:54:39.296Z,97217.31
2022-08-23T03:57:10.653Z,97201.47
2022-08-23T03:59:40.701Z,97223.34
2022-08-23T04:02:09.606Z,97222.50
2022-08-23T04:04:38.402Z,97143.34
2022-08-23T04:07:06.728Z,97208.94
2022-08-23T04:09:34.894Z,97218.78
2022-08-23T04:12:12.094Z,97235.16
2022-08-23T04:14:46.457Z,97236.66
2022-08-23T04:17:14.859Z,97238.81
2022-08-23T04:19:43.286Z,97242.66
2022-08-23T04:22:14.402Z,97242.41
2022-08-23T04:24:43.237Z,97241.94
2022-08-23T04:27:13.244Z,97244.03
2022-08-23T04:29:41.984Z,97238.50
2022-08-23T04:32:11.997Z,97241.19
2022-08-23T04:34:45.703Z,97152.84
2022-08-23T04:37:19.879Z,97251.50
2022-08-23T04:40:05.780Z,97247.81
2022-08-23T04:42:35.400Z,97241.38
2022-08-23T04:45:03.626Z,97253.34
2022-08-23T04:47:31.846Z,97236.72
2022-08-23T04:50:00.027Z,97257.16
2022-08-23T04:52:28.323Z,97249.13
2022-08-23T04:54:56.679Z,97254.63
2022-08-23T04:57:25.774Z,97263.31
2022-08-23T04:59:55.367Z,97257.53
2022-08-23T05:02:23.668Z,97270.75
2022-08-23T05:04:51.978Z,97265.56
2022-08-23T05:07:20.255Z,97282.94
2022-08-23T05:10:00.900Z,97277.91
2022-08-23T05:12:30.346Z,97279.44
2022-08-23T05:14:59.891Z,97283.13
2022-08-23T05:17:28.348Z,97270.34
2022-08-23T05:19:56.496Z,97289.41
2022-08-23T05:22:24.731Z,97288.28
2022-08-23T05:24:53.019Z,97295.47
2022-08-23T05:27:21.310Z,97293.97
2022-08-23T05:29:50.010Z,97301.78
2022-08-23T05:32:19.633Z,97311.69
2022-08-23T05:34:48.136Z,97309.66
2022-08-23T05:37:16.882Z,97292.19
2022-08-23T05:39:45.127Z,97293.28
2022-08-23T05:42:16.041Z,97317.03
2022-08-23T05:44:45.313Z,97321.47
2022-08-23T05:47:15.785Z,97320.81
2022-08-23T05:49:46.242Z,97326.78
2022-08-23T05:52:15.294Z,97303.75
2022-08-23T05:54:43.481Z,97313.50
2022-08-23T05:57:11.725Z,97320.56
2022-08-23T05:59:42.120Z,97270.06
2022-08-23T06:02:10.803Z,97326.00
2022-08-23T06:04:38.977Z,97328.41
2022-08-23T06:07:10.002Z,97331.91
2022-08-23T06:09:38.546Z,97318.94
2022-08-23T06:12:06.769Z,97323.41
2022-08-23T06:14:35.062Z,97324.72
2022-08-23T06:17:03.301Z,97316.47
2022-08-23T06:19:31.627Z,97322.25
2022-08-23T06:21:59.827Z,97325.84
2022-08-23T06:24:29.888Z,97319.03
2022-08-23T06:26:58.150Z,97319.13
2022-08-23T06:29:26.326Z,97332.34
2022-08-23T06:31:56.143Z,97324.72
2022-08-23T06:34:26.407Z,97320.59
2022-08-23T06:36:56.993Z,97206.38
2022-08-23T06:39:27.727Z,97331.84
2022-08-23T06:42:01.309Z,97326.84
2022-08-23T06:44:30.882Z,97333.00
2022-08-23T06:46:59.510Z,97333.59
2022-08-23T06:49:28.886Z,97255.00
2022-08-23T06:52:00.306Z,97331.06
2022-08-23T06:54:32.759Z,97360.47
2022-08-23T06:57:03.663Z,97337.19
2022-08-23T06:59:32.100Z,97339.97
2022-08-23T07:02:02.157Z,97239.88
2022-08-23T07:04:33.134Z,97346.06
2022-08-23T07:07:02.613Z,97347.88
2022-08-23T07:09:31.681Z,97329.22
2022-08-23T07:12:00.169Z,97340.25
2022-08-23T07:14:29.766Z,97362.44
2022-08-23T07:17:01.611Z,97347.97
2022-08-23T07:19:32.578Z,97364.88
2022-08-23T07:22:01.661Z,97365.13
2022-08-23T07:24:33.504Z,97369.97
2022-08-23T07:27:06.546Z,97376.59
2022-08-23T07:29:38.151Z,97359.44
2022-08-23T07:32:07.236Z,97378.38
2022-08-23T07:34:36.136Z,97374.78
2022-08-23T07:37:11.319Z,97342.53
2022-08-23T07:39:43.902Z,97328.81
2022-08-23T07:42:23.405Z,97375.22
2022-08-23T07:44:53.999Z,97365.06
2022-08-23T07:47:22.638Z,97369.34
2022-08-23T07:49:51.328Z,97368.84
2022-08-23T07:52:22.552Z,97376.84
2022-08-23T07:54:50.701Z,97371.25
2022-08-23T07:57:20.452Z,97288.81
2022-08-23T07:59:49.235Z,97374.66
2022-08-23T08:02:18.944Z,97377.44
2022-08-23T08:04:47.251Z,97372.13
2022-08-23T08:07:20.720Z,97374.41
2022-08-23T08:09:49.860Z,97377.09
2022-08-23T08:12:18.171Z,97343.22
2022-08-23T08:14:48.524Z,97368.06
2022-08-23T08:17:19.991Z,97269.66
2022-08-23T08:19:50.390Z,97358.06
2022-08-23T08:22:18.616Z,97354.94
2022-08-23T08:24:46.947Z,97383.94
2022-08-23T08:27:15.190Z,97359.53
2022-08-23T08:29:44.032Z,97380.28
2022-08-23T08:32:13.989Z,97365.28
2022-08-23T08:34:43.961Z,97380.06
2022-08-23T08:37:12.386Z,97388.47
2022-08-23T08:39:45.953Z,97393.19
2022-08-23T08:42:55.121Z,97390.84
2022-08-23T08:45:27.287Z,97259.88
2022-08-23T08:48:04.663Z,97343.09
2022-08-23T08:50:38.055Z,97386.63
2022-08-23T08:53:11.258Z,97392.38
2022-08-23T08:55:45.960Z,97389.94
2022-08-23T08:58:19.896Z,97384.63
2022-08-23T09:00:51.630Z,97376.09
2022-08-23T09:03:23.675Z,97403.94
2022-08-23T09:05:59.067Z,97362.88
2022-08-23T09:08:44.825Z,97394.97
2022-08-23T09:11:23.579Z,97410.22
2022-08-23T09:14:18.882Z,97411.25
2022-08-23T09:16:53.448Z,97399.63
2022-08-23T09:19:25.277Z,97413.56
2022-08-23T09:22:00.064Z,97414.38
2022-08-23T09:24:29.509Z,97401.94
2022-08-23T09:26:57.856Z,97390.78
2022-08-23T09:29:28.064Z,97408.69
2022-08-23T09:32:02.227Z,97415.41
2022-08-23T09:34:43.708Z,97395.03
2022-08-23T09:37:20.432Z,97402.59
2022-08-23T09:39:51.731Z,97420.88
2022-08-23T09:42:32.159Z,97421.13
2022-08-23T09:45:01.525Z,97410.75
2022-08-23T09:47:34.823Z,97421.25
2022-08-23T09:50:18.205Z,97382.09
2022-08-23T09:52:49.913Z,97425.47
2022-08-23T09:55:30.310Z,97413.13
2022-08-23T09:58:00.080Z,97419.75
2022-08-23T10:00:32.656Z,97418.81
2022-08-23T10:03:28.217Z,97369.44
2022-08-23T10:05:58.503Z,97428.41
2022-08-23T10:08:33.361Z,97429.28
2022-08-23T10:11:08.766Z,97443.00
2022-08-23T10:13:38.308Z,97439.91
2022-08-23T10:16:13.499Z,97443.47
2022-08-23T10:18:52.632Z,97436.31
2022-08-23T10:21:25.493Z,97442.84
2022-08-23T10:24:20.775Z,97451.13
2022-08-23T10:27:27.547Z,97446.97
2022-08-23T10:30:02.996Z,97442.34
2022-08-23T10:32:43.597Z,97452.09
2022-08-23T10:35:29.337Z,97463.63
2022-08-23T10:38:13.133Z,97431.81
2022-08-23T10:40:52.263Z,97455.59
2022-08-23T10:43:31.048Z,97459.88
2022-08-23T10:46:02.757Z,97441.75
2022-08-23T10:48:35.769Z,97462.28
2022-08-23T10:51:07.636Z,97466.63
2022-08-23T10:53:39.562Z,97472.66
2022-08-23T10:56:13.525Z,97459.25
2022-08-23T10:58:47.354Z,97463.00
2022-08-23T11:01:20.218Z,97438.34
2022-08-23T11:03:58.667Z,97468.94
2022-08-23T11:06:59.098Z,97474.00
2022-08-23T11:09:37.758Z,97457.31
2022-08-23T11:12:23.019Z,97490.19
2022-08-23T11:15:11.877Z,97492.75
2022-08-23T11:17:54.119Z,97492.47
2022-08-23T11:20:59.766Z,97496.78
2022-08-23T11:23:49.398Z,97440.06
2022-08-23T11:27:06.055Z,97495.97
2022-08-23T11:29:39.370Z,97479.03
2022-08-23T11:32:31.713Z,97497.16
2022-08-23T11:35:08.971Z,97426.41
2022-08-23T11:37:57.167Z,97470.53
2022-08-23T11:40:58.486Z,97475.25
2022-08-23T11:43:30.473Z,97499.16
2022-08-23T11:46:16.712Z,97495.16
2022-08-23T11:48:54.087Z,97494.72
2022-08-23T11:51:33.080Z,97484.16
2022-08-23T11:54:20.105Z,97482.75
2022-08-23T11:57:08.079Z,97488.66
2022-08-23T11:59:51.870Z,97480.41
2022-08-23T12:03:02.042Z,97486.38
2022-08-23T12:06:03.817Z,97484.59
2022-08-23T12:08:53.775Z,97493.31
2022-08-23T12:11:23.985Z,97480.47
2022-08-23T12:14:00.162Z,97492.47
2022-08-23T12:16:36.366Z,97490.13
2022-08-23T12:19:13.587Z,97481.81
2022-08-23T12:21:49.396Z,97503.78
2022-08-23T12:24:24.268Z,97491.63
2022-08-23T12:27:09.824Z,97376.94
2022-08-23T12:29:59.982Z,97481.66
2022-08-23T12:32:37.112Z,97485.56
2022-08-23T12:35:23.725Z,97482.25
2022-08-23T12:38:01.808Z,97483.09
2022-08-23T12:40:36.577Z,97480.31
2022-08-23T12:43:11.880Z,97462.47
2022-08-23T12:45:50.194Z,97482.78
2022-08-23T12:48:21.307Z,97482.78
2022-08-23T12:50:57.574Z,97483.97
2022-08-23T12:53:31.226Z,97450.66
2022-08-23T12:56:03.894Z,97483.63
2022-08-23T12:58:34.613Z,97463.25
2022-08-23T13:01:05.892Z,97476.00
2022-08-23T13:03:38.781Z,97487.16
2022-08-23T13:06:12.958Z,97488.25
2022-08-23T13:08:45.137Z,97488.97
2022-08-23T13:11:16.313Z,97488.47
2022-08-23T13:13:45.397Z,97485.69
2022-08-23T13:16:29.771Z,97475.97
2022-08-23T13:19:15.860Z,97481.44
2022-08-23T13:21:46.742Z,97480.47
2022-08-23T13:24:36.629Z,97469.31
2022-08-23T13:27:19.581Z,97466.66
2022-08-23T13:29:54.057Z,97471.53
2022-08-23T13:32:41.734Z,97466.16
2022-08-23T13:35:30.541Z,97467.03
2022-08-23T13:38:03.026Z,97463.00
2022-08-23T13:40:34.702Z,97466.66
2022-08-23T13:43:05.323Z,97458.50
2022-08-23T13:45:47.273Z,97456.72
2022-08-23T13:48:20.234Z,97458.63
2022-08-23T13:50:49.340Z,97460.09
2022-08-23T13:53:19.630Z,97438.84
2022-08-23T13:55:55.768Z,97451.59
2022-08-23T13:58:30.840Z,97436.66
2022-08-23T14:01:00.610Z,97433.13
2022-08-23T14:03:31.512Z,97448.19
2022-08-23T14:05:59.722Z,97448.91
2022-08-23T14:08:29.402Z,97446.59
2022-08-23T14:10:57.638Z,97451.38
2022-08-23T14:13:30.107Z,97450.00
2022-08-23T14:21:39.800Z,97443.59
2022-08-23T14:24:10.524Z,97442.75
2022-08-23T14:26:51.546Z,97454.41
2022-08-23T14:29:23.581Z,97473.19
2022-08-23T14:31:53.210Z,97462.28
2022-08-23T14:34:26.388Z,97466.00
2022-08-23T14:39:50.146Z,97470.75
2022-08-23T14:42:22.784Z,97467.72
2022-08-23T14:44:52.164Z,97210.78
2022-08-23T14:47:20.981Z,97482.00
2022-08-23T14:49:53.324Z,97460.84
2022-08-23T14:52:22.932Z,97387.84
2022-08-23T14:54:53.164Z,97428.03
2022-08-23T14:57:22.311Z,97229.75
2022-08-23T14:59:51.484Z,97476.25
2022-08-23T15:02:24.851Z,97477.09
2022-08-23T15:04:54.168Z,97478.41
2022-08-23T15:07:26.467Z,97485.91
2022-08-23T15:09:56.661Z,97488.19
2022-08-23T15:15:20.683Z,97492.81
2022-08-23T15:17:53.303Z,97470.06
2022-08-23T15:20:22.326Z,97495.41
2022-08-23T15:22:55.362Z,97497.56
2022-08-23T15:25:26.745Z,97494.66
2022-08-23T15:27:55.361Z,97490.41
2022-08-23T15:30:24.827Z,97489.50
2022-08-23T15:33:03.804Z,97504.38
2022-08-23T15:35:38.427Z,97483.06
2022-08-23T15:38:08.788Z,97480.44
2022-08-23T15:40:39.906Z,97479.41
2022-08-23T15:43:08.274Z,97488.81
2022-08-23T15:45:37.287Z,97504.66
2022-08-23T15:48:14.857Z,97510.41
2022-08-23T15:50:45.961Z,97508.09
2022-08-23T15:53:14.810Z,97505.97
2022-08-23T15:55:45.484Z,97432.03
2022-08-23T15:58:17.027Z,97509.06
2022-08-23T16:00:45.918Z,97477.78
2022-08-23T16:03:20.614Z,97506.00
2022-08-23T16:05:51.681Z,97506.53
2022-08-23T16:08:22.830Z,97514.06
2022-08-23T16:10:53.256Z,97509.50
2022-08-23T16:13:22.714Z,97505.56
2022-08-23T16:15:51.316Z,97503.03
2022-08-23T16:18:20.033Z,97474.28
2022-08-23T16:20:48.297Z,97507.53
2022-08-23T16:23:16.547Z,97514.22
2022-08-23T16:25:44.736Z,97509.88
2022-08-23T16:28:14.471Z,97502.19
2022-08-23T16:30:42.792Z,97508.59
2022-08-23T16:33:11.085Z,97506.97
2022-08-23T16:35:39.257Z,97499.31
2022-08-23T16:38:07.590Z,97502.78
2022-08-23T16:40:35.872Z,97491.94
2022-08-23T16:43:04.158Z,97508.78
2022-08-23T16:45:33.959Z,97517.22
2022-08-23T16:48:02.206Z,97491.09
2022-08-23T16:50:32.828Z,97517.22
2022-08-23T16:53:06.429Z,97516.44
2022-08-23T16:55:35.436Z,97495.69
2022-08-23T16:58:04.077Z,97493.44
2022-08-23T17:00:34.125Z,97526.47
2022-08-23T17:03:02.653Z,97513.56
2022-08-23T17:05:31.052Z,97517.81
2022-08-23T17:07:59.534Z,97522.06
2022-08-23T17:10:28.824Z,97523.56
2022-08-23T17:12:59.267Z,97525.09
2022-08-23T17:15:31.021Z,97523.66
2022-08-23T17:18:01.349Z,97463.69
2022-08-23T17:20:32.903Z,97503.13
2022-08-23T17:23:01.261Z,97525.00
2022-08-23T17:25:34.441Z,97526.91
2022-08-23T17:28:04.815Z,97532.53
2022-08-23T17:30:33.261Z,97541.38
2022-08-23T17:33:03.446Z,97546.38
2022-08-23T17:35:33.648Z,97536.53
2022-08-23T17:38:03.168Z,97548.38
2022-08-23T17:40:37.405Z,97527.94
2022-08-23T17:43:06.554Z,97555.72
2022-08-23T17:45:41.526Z,97550.69
2022-08-23T17:48:12.153Z,97555.50
2022-08-23T17:50:43.750Z,97551.66
2022-08-23T17:53:13.008Z,97566.03
2022-08-23T17:55:42.433Z,97557.09
2022-08-23T17:58:11.756Z,97571.97
2022-08-23T18:00:40.942Z,97558.47
2022-08-23T18:03:10.597Z,97561.22
2022-08-23T18:05:43.086Z,97564.75
2022-08-23T18:08:11.641Z,97579.22
2022-08-23T18:10:40.225Z,97574.13
2022-08-23T18:13:08.458Z,97588.28
2022-08-23T18:15:37.738Z,97596.25
2022-08-23T18:18:06.094Z,97588.13
2022-08-23T18:20:36.064Z,97593.66
2022-08-23T18:23:05.243Z,97601.84
2022-08-23T18:25:33.723Z,97572.00
2022-08-23T18:28:07.375Z,97601.41
2022-08-23T18:30:37.227Z,97586.53
2022-08-23T18:33:07.965Z,97606.16
2022-08-23T18:35:43.912Z,97609.34
2022-08-23T18:38:13.997Z,97608.66
2022-08-23T18:40:49.225Z,97604.19
2022-08-23T18:43:19.946Z,97612.75
2022-08-23T18:45:50.049Z,97621.56
2022-08-23T18:48:18.866Z,97630.59
2022-08-23T18:50:50.278Z,97627.16
2022-08-23T18:53:19.914Z,97618.91
2022-08-23T18:55:50.316Z,97626.41
2022-08-23T18:58:19.188Z,97533.41
2022-08-23T19:00:49.474Z,97618.09
2022-08-23T19:03:19.176Z,97625.78
2022-08-23T19:05:49.462Z,97627.94
2022-08-23T19:08:17.909Z,97604.50
2022-08-23T19:10:48.044Z,97612.09
2022-08-23T19:13:17.204Z,97635.84
2022-08-23T19:15:45.760Z,97636.91
2022-08-23T19:18:15.007Z,97641.94
2022-08-23T19:20:43.550Z,97624.97
2022-08-23T19:23:13.837Z,97633.28
2022-08-23T19:25:45.799Z,97621.16
2022-08-23T19:28:15.755Z,97643.53
2022-08-23T19:30:44.722Z,97615.03
2022-08-23T19:33:13.661Z,97621.97
2022-08-23T19:35:42.712Z,97640.72
2022-08-23T19:38:14.556Z,97657.53
2022-08-23T19:40:44.011Z,97655.66
2022-08-23T19:43:12.837Z,97627.44
2022-08-23T19:45:41.503Z,97663.94
2022-08-23T19:48:10.484Z,97663.75
2022-08-23T19:50:40.923Z,97667.34
2022-08-23T19:53:10.065Z,97667.22
2022-08-23T19:55:42.641Z,97673.00
2022-08-23T19:58:15.137Z,97672.72
2022-08-23T20:00:44.405Z,97666.78
2022-08-23T20:03:13.376Z,97674.31
2022-08-23T20:05:42.469Z,97685.91
2022-08-23T20:08:11.216Z,97665.97
2022-08-23T20:10:41.340Z,97686.88
2022-08-23T20:13:09.910Z,97680.50
2022-08-23T20:15:39.663Z,97580.78
2022-08-23T20:18:08.141Z,97650.41
2022-08-23T20:20:36.775Z,97678.06
2022-08-23T20:23:22.377Z,97682.59
2022-08-23T20:25:52.762Z,97684.59
2022-08-23T20:28:26.175Z,97668.41
2022-08-23T20:30:55.047Z,97650.31
2022-08-23T20:33:23.474Z,97667.31
2022-08-23T20:35:51.939Z,97677.09
2022-08-23T20:38:33.101Z,97679.56
2022-08-23T20:41:03.909Z,97663.22
2022-08-23T20:43:32.607Z,97687.06
2022-08-23T20:46:01.288Z,97648.41
2022-08-23T20:48:29.533Z,97672.13
2022-08-23T20:51:00.705Z,97682.88
2022-08-23T20:53:30.055Z,97672.44
2022-08-23T20:55:59.148Z,97685.34
2022-08-23T20:58:29.565Z,97686.09
2022-08-23T21:00:57.959Z,97667.88
2022-08-23T21:03:26.254Z,97682.00
2022-08-23T21:06:04.806Z,97688.19
2022-08-23T21:08:33.287Z,97679.16
2022-08-23T21:11:03.453Z,97680.97
2022-08-23T21:13:33.594Z,97686.50
2022-08-23T21:16:01.970Z,97663.91
2022-08-23T21:18:30.374Z,97647.31
2022-08-23T21:20:59.534Z,97684.59
2022-08-23T21:23:27.965Z,97650.06
2022-08-23T21:25:57.534Z,97660.69
2022-08-23T21:28:26.859Z,97670.94
2022-08-23T21:30:56.681Z,97653.16
2022-08-23T21:33:25.923Z,97651.81
2022-08-23T21:35:54.099Z,97623.41
2022-08-23T21:38:22.337Z,97688.25
2022-08-23T21:40:56.081Z,97680.41
2022-08-23T21:43:26.054Z,97687.03
2022-08-23T21:45:54.341Z,97675.47
2022-08-23T21:48:24.558Z,97691.28
2022-08-23T21:50:52.815Z,97690.53
2022-08-23T21:53:21.155Z,97659.06
2022-08-23T21:55:49.353Z,97682.84
2022-08-23T21:58:17.665Z,97678.09
2022-08-23T22:00:46.199Z,97679.06
2022-08-23T22:03:14.502Z,97679.66
2022-08-23T22:05:45.654Z,97681.91
2022-08-23T22:08:17.043Z,97599.78
2022-08-23T22:10:56.711Z,97669.75
2022-08-23T22:13:28.309Z,97661.09
2022-08-23T22:15:56.739Z,97654.72
2022-08-23T22:18:25.017Z,97664.81
2022-08-23T22:20:55.209Z,97642.34
2022-08-23T22:23:23.465Z,97660.91
2022-08-23T22:25:51.718Z,97631.34
2022-08-23T22:28:20.216Z,97663.31
2022-08-23T22:30:48.403Z,97661.25
2022-08-23T22:33:16.658Z,97627.84
2022-08-23T22:35:48.833Z,97643.44
2022-08-23T22:38:19.007Z,97661.56
2022-08-23T22:40:50.878Z,97657.97
2022-08-23T22:43:20.236Z,97623.63
2022-08-23T22:45:53.649Z,97631.88
2022-08-23T22:48:22.035Z,97641.53
2022-08-23T22:50:50.811Z,97644.78
2022-08-23T22:53:20.658Z,97622.31
2022-08-23T22:55:52.335Z,97631.00
2022-08-23T22:58:20.466Z,97626.22
2022-08-23T23:00:48.657Z,97611.84
2022-08-23T23:03:16.817Z,97608.09
2022-08-23T23:05:45.046Z,97638.47
2022-08-23T23:08:31.015Z,97612.41
2022-08-23T23:11:03.608Z,97633.06
2022-08-23T23:13:32.789Z,97629.66
2022-08-23T23:16:04.100Z,97635.66
2022-08-23T23:18:32.475Z,97628.31
2022-08-23T23:21:01.736Z,97621.31
2022-08-23T23:23:31.755Z,97618.75
2022-08-23T23:26:02.549Z,97614.53
2022-08-23T23:28:31.416Z,97624.66
2022-08-23T23:30:59.859Z,97607.97
2022-08-23T23:33:28.670Z,97626.16
2022-08-23T23:35:57.365Z,97541.16
2022-08-23T23:38:25.656Z,97616.50
2022-08-23T23:40:53.814Z,97623.84
2022-08-23T23:43:23.440Z,97634.69
2022-08-23T23:45:51.685Z,97590.03
2022-08-23T23:48:20.090Z,97630.59
2022-08-23T23:50:48.257Z,97633.34
2022-08-23T23:53:16.576Z,97637.53
2022-08-23T23:55:45.055Z,97634.63
2022-08-23T23:58:13.249Z,97633.06
